createdAt,value
2022-08-18T02:00:52.606Z,6.10
2022-08-18T02:01:13.303Z,6.00
2022-08-18T02:01:36.896Z,5.20
2022-08-18T02:01:54.326Z,5.80
2022-08-18T02:02:18.579Z,6.40
2022-08-18T02:02:35.283Z,6.80
2022-08-18T02:03:01.887Z,6.50
2022-08-18T02:03:16.264Z,6.70
2022-08-18T02:03:36.665Z,6.80
2022-08-18T02:04:16.685Z,8.00
2022-08-18T02:04:34.508Z,5.70
2022-08-18T02:04:38.137Z,5.70
2022-08-18T02:04:58.734Z,6.10
2022-08-18T02:05:19.324Z,5.60
2022-08-18T02:05:39.918Z,6.90
2022-08-18T02:06:00.754Z,6.60
2022-08-18T02:06:32.353Z,6.20
2022-08-18T02:06:42.351Z,5.40
2022-08-18T02:07:02.235Z,5.60
2022-08-18T02:07:30.800Z,5.50
2022-08-18T02:07:45.310Z,5.70
2022-08-18T02:08:05.901Z,5.60
2022-08-18T02:08:28.187Z,5.60
2022-08-18T02:08:53.587Z,5.90
2022-08-18T02:09:07.583Z,5.50
2022-08-18T02:09:28.157Z,5.50
2022-08-18T02:09:51.082Z,5.20
2022-08-18T02:10:12.415Z,5.40
2022-08-18T02:10:32.180Z,6.10
2022-08-18T02:10:52.774Z,6.60
2022-08-18T02:11:13.356Z,6.10
2022-08-18T02:11:33.749Z,7.40
2022-08-18T02:11:55.887Z,7.60
2022-08-18T02:12:16.635Z,6.50
2022-08-18T02:12:37.206Z,5.70
2022-08-18T02:12:57.790Z,5.40
2022-08-18T02:13:18.371Z,6.30
2022-08-18T02:13:38.953Z,6.60
2022-08-18T02:13:59.541Z,6.90
2022-08-18T02:14:20.120Z,7.00
2022-08-18T02:14:40.531Z,7.20
2022-08-18T02:15:01.333Z,6.50
2022-08-18T02:15:21.916Z,6.10
2022-08-18T02:15:42.877Z,6.20
2022-08-18T02:16:03.612Z,6.40
2022-08-18T02:16:24.192Z,7.10
2022-08-18T02:16:44.784Z,5.50
2022-08-18T02:17:05.369Z,5.70
2022-08-18T02:17:25.759Z,5.00
2022-08-18T02:17:46.342Z,4.40
2022-08-18T02:18:06.734Z,6.40
2022-08-18T02:18:47.567Z,6.30
2022-08-18T02:18:48.954Z,5.30
2022-08-18T02:19:08.119Z,5.80
2022-08-18T02:19:28.711Z,6.90
2022-08-18T02:19:49.294Z,6.20
2022-08-18T02:20:09.872Z,6.20
2022-08-18T02:20:30.461Z,6.30
2022-08-18T02:20:51.043Z,5.60
2022-08-18T02:21:11.650Z,6.40
2022-08-18T02:21:32.233Z,6.60
2022-08-18T02:21:52.864Z,7.60
2022-08-18T02:22:13.456Z,6.80
2022-08-18T02:22:33.853Z,7.00
2022-08-18T02:22:54.433Z,5.90
2022-08-18T02:23:14.833Z,5.80
2022-08-18T02:23:35.416Z,6.50
2022-08-18T02:23:56.000Z,5.70
2022-08-18T02:24:16.399Z,5.50
2022-08-18T02:24:36.988Z,6.10
2022-08-18T02:24:57.572Z,6.60
2022-08-18T02:25:18.149Z,6.90
2022-08-18T02:25:38.732Z,6.10
2022-08-18T02:25:59.313Z,6.00
2022-08-18T02:26:19.913Z,5.60
2022-08-18T02:26:40.491Z,7.40
2022-08-18T02:27:01.073Z,7.00
2022-08-18T02:27:21.475Z,6.10
2022-08-18T02:27:42.061Z,7.10
2022-08-18T02:28:02.645Z,5.20
2022-08-18T02:28:26.293Z,5.00
2022-08-18T02:28:43.619Z,5.70
2022-08-18T02:29:04.016Z,6.30
2022-08-18T02:29:24.594Z,7.00
2022-08-18T02:29:45.176Z,6.80
2022-08-18T02:30:05.759Z,7.10
2022-08-18T02:30:26.349Z,7.10
2022-08-18T02:30:46.927Z,6.50
2022-08-18T02:31:07.516Z,6.90
2022-08-18T02:31:31.836Z,5.40
2022-08-18T02:31:52.231Z,6.30
2022-08-18T02:32:12.823Z,6.40
2022-08-18T02:32:33.405Z,6.40
2022-08-18T02:32:53.808Z,6.80
2022-08-18T02:33:14.390Z,5.90
2022-08-18T02:33:34.978Z,6.20
2022-08-18T02:33:55.549Z,5.00
2022-08-18T02:34:16.133Z,5.60
2022-08-18T02:34:36.528Z,5.70
2022-08-18T02:34:57.108Z,5.60
2022-08-18T02:35:17.691Z,6.00
2022-08-18T02:35:38.272Z,5.60
2022-08-18T02:35:58.856Z,5.80
2022-08-18T02:36:19.439Z,6.20
2022-08-18T02:36:40.034Z,5.80
2022-08-18T02:37:00.623Z,5.40
2022-08-18T02:37:21.202Z,5.80
2022-08-18T02:37:42.484Z,5.70
2022-08-18T02:38:03.819Z,5.80
2022-08-18T02:38:24.443Z,6.40
2022-08-18T02:38:45.023Z,6.40
2022-08-18T02:39:05.433Z,7.40
2022-08-18T02:39:26.014Z,5.90
2022-08-18T02:39:46.645Z,5.50
2022-08-18T02:40:07.295Z,6.50
2022-08-18T02:40:27.874Z,6.40
2022-08-18T02:40:48.460Z,5.50
2022-08-18T02:41:09.046Z,5.70
2022-08-18T02:41:30.152Z,5.70
2022-08-18T02:41:50.796Z,6.10
2022-08-18T02:42:11.380Z,6.40
2022-08-18T02:42:31.962Z,6.10
2022-08-18T02:42:52.543Z,7.10
2022-08-18T02:43:13.122Z,7.30
2022-08-18T02:43:37.648Z,6.00
2022-08-18T02:43:58.365Z,6.50
2022-08-18T02:44:18.948Z,6.80
2022-08-18T02:44:39.527Z,5.80
2022-08-18T02:45:00.125Z,6.50
2022-08-18T02:45:20.694Z,5.50
2022-08-18T02:45:41.278Z,5.90
2022-08-18T02:46:01.859Z,5.30
2022-08-18T02:46:22.257Z,5.00
2022-08-18T02:46:44.083Z,5.70
2022-08-18T02:47:04.665Z,6.90
2022-08-18T02:47:26.576Z,6.90
2022-08-18T02:47:48.709Z,6.90
2022-08-18T02:48:09.293Z,6.30
2022-08-18T02:48:29.876Z,6.30
2022-08-18T02:48:50.459Z,6.10
2022-08-18T02:49:11.047Z,5.30
2022-08-18T02:49:31.627Z,5.70
2022-08-18T02:49:52.208Z,6.20
2022-08-18T02:50:12.608Z,5.50
2022-08-18T02:50:33.196Z,5.50
2022-08-18T02:50:53.781Z,6.50
2022-08-18T02:51:14.367Z,6.40
2022-08-18T02:51:34.946Z,6.20
2022-08-18T02:51:55.546Z,6.60
2022-08-18T02:52:16.122Z,6.00
2022-08-18T02:52:36.519Z,6.00
2022-08-18T02:52:58.879Z,6.00
2022-08-18T02:53:19.464Z,6.60
2022-08-18T02:53:40.046Z,8.00
2022-08-18T02:54:00.638Z,6.70
2022-08-18T02:54:21.209Z,5.60
2022-08-18T02:54:41.800Z,5.30
2022-08-18T02:55:02.384Z,5.70
2022-08-18T02:55:22.973Z,6.20
2022-08-18T02:55:43.557Z,5.80
2022-08-18T02:56:04.139Z,5.10
2022-08-18T02:56:35.692Z,5.70
2022-08-18T02:56:44.967Z,5.30
2022-08-18T02:57:05.551Z,5.70
2022-08-18T02:57:26.146Z,5.70
2022-08-18T02:57:46.731Z,6.70
2022-08-18T02:58:07.319Z,6.60
2022-08-18T02:58:31.834Z,5.70
2022-08-18T02:58:48.303Z,5.30
2022-08-18T02:59:08.884Z,6.20
2022-08-18T02:59:31.965Z,5.90
2022-08-18T02:59:49.858Z,5.10
2022-08-18T03:00:10.461Z,5.60
2022-08-18T03:00:30.859Z,7.00
2022-08-18T03:00:51.450Z,5.70
2022-08-18T03:01:12.052Z,5.60
2022-08-18T03:01:32.667Z,6.20
2022-08-18T03:01:53.321Z,5.60
2022-08-18T03:02:13.898Z,5.20
2022-08-18T03:02:34.477Z,5.40
2022-08-18T03:02:55.070Z,5.30
2022-08-18T03:03:15.640Z,5.50
2022-08-18T03:03:36.227Z,6.80
2022-08-18T03:03:56.804Z,6.90
2022-08-18T03:04:17.688Z,5.70
2022-08-18T03:04:38.241Z,6.10
2022-08-18T03:04:58.822Z,6.80
2022-08-18T03:05:19.408Z,7.60
2022-08-18T03:05:39.987Z,6.20
2022-08-18T03:06:00.567Z,5.70
2022-08-18T03:06:21.154Z,6.00
2022-08-18T03:06:41.739Z,5.80
2022-08-18T03:07:02.339Z,6.40
2022-08-18T03:07:22.916Z,6.40
2022-08-18T03:07:43.319Z,6.60
2022-08-18T03:08:03.899Z,5.60
2022-08-18T03:08:24.481Z,5.30
2022-08-18T03:08:45.067Z,5.50
2022-08-18T03:09:05.652Z,5.10
2022-08-18T03:09:26.234Z,6.00
2022-08-18T03:09:46.815Z,6.40
2022-08-18T03:10:33.225Z,6.20
2022-08-18T03:10:33.551Z,5.90
2022-08-18T03:10:48.212Z,6.10
2022-08-18T03:11:08.802Z,7.00
2022-08-18T03:11:29.386Z,5.60
2022-08-18T03:11:49.968Z,5.70
2022-08-18T03:12:10.565Z,6.70
2022-08-18T03:12:31.147Z,7.40
2022-08-18T03:12:51.736Z,7.20
2022-08-18T03:13:12.317Z,5.90
2022-08-18T03:13:32.901Z,6.00
2022-08-18T03:13:53.491Z,5.50
2022-08-18T03:14:14.075Z,6.10
2022-08-18T03:14:34.658Z,6.60
2022-08-18T03:14:55.240Z,7.30
2022-08-18T03:15:15.828Z,6.00
2022-08-18T03:15:36.410Z,6.90
2022-08-18T03:15:57.125Z,5.80
2022-08-18T03:16:17.655Z,6.00
2022-08-18T03:16:38.238Z,6.50
2022-08-18T03:16:58.835Z,6.10
2022-08-18T03:17:19.229Z,5.40
2022-08-18T03:17:39.811Z,6.60
2022-08-18T03:18:00.391Z,7.10
2022-08-18T03:18:20.978Z,7.00
2022-08-18T03:18:41.556Z,6.20
2022-08-18T03:19:02.141Z,5.40
2022-08-18T03:19:22.731Z,7.00
2022-08-18T03:19:43.309Z,6.10
2022-08-18T03:20:05.760Z,6.00
2022-08-18T03:20:30.495Z,5.40
2022-08-18T03:20:46.657Z,6.40
2022-08-18T03:21:07.816Z,6.20
2022-08-18T03:21:28.372Z,6.00
2022-08-18T03:21:49.647Z,6.70
2022-08-18T03:22:27.569Z,6.90
2022-08-18T03:22:31.568Z,8.20
2022-08-18T03:22:52.950Z,8.20
2022-08-18T03:23:13.531Z,8.30
2022-08-18T03:23:34.446Z,6.90
2022-08-18T03:24:00.646Z,6.20
2022-08-18T03:24:19.392Z,5.50
2022-08-18T03:24:35.652Z,5.70
2022-08-18T03:24:56.049Z,6.70
2022-08-18T03:25:16.633Z,6.50
2022-08-18T03:25:37.216Z,6.50
2022-08-18T03:25:57.795Z,6.20
2022-08-18T03:26:18.384Z,5.40
2022-08-18T03:26:38.966Z,5.50
2022-08-18T03:26:59.567Z,6.70
2022-08-18T03:27:20.148Z,7.50
2022-08-18T03:27:40.730Z,6.50
2022-08-18T03:28:01.313Z,5.90
2022-08-18T03:28:21.897Z,6.00
2022-08-18T03:28:42.476Z,7.20
2022-08-18T03:29:02.871Z,6.50
2022-08-18T03:29:25.536Z,5.50
2022-08-18T03:29:43.848Z,5.30
2022-08-18T03:30:04.429Z,5.30
2022-08-18T03:30:24.824Z,5.80
2022-08-18T03:30:45.409Z,5.70
2022-08-18T03:31:05.994Z,6.40
2022-08-18T03:31:27.838Z,6.90
2022-08-18T03:31:46.975Z,6.80
2022-08-18T03:32:07.572Z,6.00
2022-08-18T03:32:28.160Z,6.30
2022-08-18T03:32:48.737Z,6.90
2022-08-18T03:33:09.318Z,5.40
2022-08-18T03:33:29.901Z,7.20
2022-08-18T03:33:50.487Z,7.00
2022-08-18T03:34:11.067Z,6.50
2022-08-18T03:34:31.670Z,6.60
2022-08-18T03:34:52.232Z,4.80
2022-08-18T03:35:12.626Z,5.90
2022-08-18T03:35:33.205Z,5.80
2022-08-18T03:35:53.792Z,6.90
2022-08-18T03:36:14.376Z,6.50
2022-08-18T03:36:34.956Z,5.80
2022-08-18T03:36:55.540Z,6.00
2022-08-18T03:37:16.149Z,6.70
2022-08-18T03:37:36.721Z,6.20
2022-08-18T03:37:57.305Z,5.60
2022-08-18T03:38:17.888Z,5.70
2022-08-18T03:38:38.474Z,5.70
2022-08-18T03:38:59.051Z,5.20
2022-08-18T03:39:19.642Z,6.00
2022-08-18T03:39:40.316Z,5.80
2022-08-18T03:40:00.976Z,5.60
2022-08-18T03:40:21.569Z,5.10
2022-08-18T03:40:42.150Z,5.80
2022-08-18T03:41:02.732Z,6.70
2022-08-18T03:41:43.850Z,7.00
2022-08-18T03:41:59.863Z,5.90
2022-08-18T03:42:04.138Z,6.00
2022-08-18T03:42:24.736Z,6.60
2022-08-18T03:42:45.321Z,6.20
2022-08-18T03:43:05.903Z,6.60
2022-08-18T03:43:50.810Z,7.30
2022-08-18T03:43:50.938Z,6.00
2022-08-18T03:44:07.129Z,6.50
2022-08-18T03:44:27.711Z,5.90
2022-08-18T03:44:48.294Z,6.60
2022-08-18T03:45:13.422Z,6.20
2022-08-18T03:45:29.273Z,6.30
2022-08-18T03:45:49.857Z,6.00
2022-08-18T03:46:10.443Z,6.20
2022-08-18T03:46:31.022Z,6.70
2022-08-18T03:46:51.865Z,6.40
2022-08-18T03:47:12.452Z,6.20
2022-08-18T03:47:33.086Z,6.80
2022-08-18T03:47:53.891Z,6.00
2022-08-18T03:48:14.560Z,6.20
2022-08-18T03:48:35.148Z,7.20
2022-08-18T03:48:55.731Z,8.60
2022-08-18T03:49:16.865Z,5.90
2022-08-18T03:49:37.449Z,6.20
2022-08-18T03:49:58.029Z,6.40
2022-08-18T03:50:18.616Z,7.30
2022-08-18T03:50:39.199Z,7.60
2022-08-18T03:51:01.876Z,6.90
2022-08-18T03:51:19.998Z,6.40
2022-08-18T03:51:40.580Z,7.10
2022-08-18T03:52:01.492Z,6.20
2022-08-18T03:52:22.183Z,6.60
2022-08-18T03:52:42.596Z,6.20
2022-08-18T03:53:03.199Z,6.80
2022-08-18T03:53:23.783Z,7.30
2022-08-18T03:53:44.363Z,5.90
2022-08-18T03:54:04.955Z,5.90
2022-08-18T03:54:25.344Z,6.40
2022-08-18T03:54:45.915Z,5.60
2022-08-18T03:55:06.495Z,6.90
2022-08-18T03:55:27.086Z,7.30
2022-08-18T03:55:47.676Z,5.30
2022-08-18T03:56:08.258Z,6.20
2022-08-18T03:56:28.855Z,6.00
2022-08-18T03:56:49.505Z,6.00
2022-08-18T03:57:10.072Z,6.90
2022-08-18T03:57:30.668Z,7.00
2022-08-18T03:57:51.350Z,7.30
2022-08-18T03:58:12.058Z,6.50
2022-08-18T03:58:32.639Z,7.30
2022-08-18T03:58:53.230Z,7.70
2022-08-18T03:59:13.811Z,6.70
2022-08-18T03:59:34.395Z,6.20
2022-08-18T03:59:54.971Z,6.80
2022-08-18T04:00:15.551Z,7.00
2022-08-18T04:00:35.945Z,6.80
2022-08-18T04:00:56.580Z,6.70
2022-08-18T04:01:26.256Z,5.90
2022-08-18T04:01:37.749Z,6.20
2022-08-18T04:01:58.403Z,5.60
2022-08-18T04:02:18.991Z,6.30
2022-08-18T04:02:39.594Z,7.00
2022-08-18T04:03:00.177Z,5.90
2022-08-18T04:03:20.758Z,5.50
2022-08-18T04:03:41.341Z,5.20
2022-08-18T04:04:01.924Z,7.20
2022-08-18T04:04:22.511Z,7.10
2022-08-18T04:04:43.411Z,6.80
2022-08-18T04:05:03.481Z,7.60
2022-08-18T04:05:25.976Z,5.60
2022-08-18T04:05:46.367Z,7.60
2022-08-18T04:06:10.825Z,6.40
2022-08-18T04:06:30.112Z,7.90
2022-08-18T04:06:47.742Z,7.70
2022-08-18T04:07:08.325Z,6.60
2022-08-18T04:07:28.906Z,6.60
2022-08-18T04:07:49.603Z,7.60
2022-08-18T04:08:10.252Z,7.90
2022-08-18T04:08:30.826Z,6.60
2022-08-18T04:08:51.404Z,7.30
2022-08-18T04:09:11.995Z,7.60
2022-08-18T04:09:32.574Z,7.70
2022-08-18T04:09:53.156Z,10.30
2022-08-18T04:10:19.187Z,8.10
2022-08-18T04:10:34.140Z,6.80
2022-08-18T04:10:54.723Z,6.90
2022-08-18T04:11:15.310Z,7.00
2022-08-18T04:11:36.984Z,9.10
2022-08-18T04:11:56.099Z,6.30
2022-08-18T04:12:17.369Z,6.20
2022-08-18T04:12:38.145Z,7.40
2022-08-18T04:12:58.753Z,6.50
2022-08-18T04:13:19.333Z,7.40
2022-08-18T04:13:39.918Z,6.80
2022-08-18T04:14:00.500Z,6.40
2022-08-18T04:14:23.027Z,7.50
2022-08-18T04:14:43.608Z,7.50
2022-08-18T04:15:04.003Z,6.30
2022-08-18T04:15:24.585Z,6.90
2022-08-18T04:15:45.171Z,8.80
2022-08-18T04:16:05.758Z,9.00
2022-08-18T04:16:26.339Z,9.90
2022-08-18T04:16:46.920Z,7.60
2022-08-18T04:17:07.500Z,8.10
2022-08-18T04:17:28.080Z,6.90
2022-08-18T04:17:56.237Z,7.20
2022-08-18T04:18:09.210Z,8.00
2022-08-18T04:18:29.993Z,6.20
2022-08-18T04:18:50.571Z,5.90
2022-08-18T04:19:11.155Z,6.40
2022-08-18T04:19:31.736Z,5.40
2022-08-18T04:19:52.132Z,6.00
2022-08-18T04:20:12.544Z,7.10
2022-08-18T04:20:33.114Z,6.90
2022-08-18T04:20:59.395Z,7.00
2022-08-18T04:21:14.089Z,6.80
2022-08-18T04:21:34.670Z,6.90
2022-08-18T04:21:55.251Z,8.80
2022-08-18T04:22:17.318Z,8.00
2022-08-18T04:22:39.006Z,5.60
2022-08-18T04:22:59.608Z,6.80
2022-08-18T04:23:20.191Z,6.40
2022-08-18T04:23:43.875Z,6.40
2022-08-18T04:24:04.929Z,6.10
2022-08-18T04:24:25.502Z,7.20
2022-08-18T04:24:46.083Z,7.10
2022-08-18T04:25:06.668Z,7.20
2022-08-18T04:25:32.177Z,6.70
2022-08-18T04:25:47.654Z,7.20
2022-08-18T04:26:08.248Z,7.00
2022-08-18T04:26:28.838Z,6.80
2022-08-18T04:26:49.416Z,9.00
2022-08-18T04:27:10.000Z,7.20
2022-08-18T04:27:30.581Z,6.10
2022-08-18T04:27:54.142Z,6.80
2022-08-18T04:28:14.721Z,7.70
2022-08-18T04:28:35.305Z,7.60
2022-08-18T04:28:55.883Z,6.90
2022-08-18T04:29:16.469Z,6.90
2022-08-18T04:29:37.047Z,7.10
2022-08-18T04:29:57.759Z,6.80
2022-08-18T04:30:19.405Z,6.70
2022-08-18T04:30:39.990Z,7.50
2022-08-18T04:31:00.582Z,7.60
2022-08-18T04:31:21.160Z,9.50
2022-08-18T04:31:41.755Z,9.30
2022-08-18T04:32:02.146Z,7.10
2022-08-18T04:32:22.728Z,7.40
2022-08-18T04:32:43.127Z,8.30
2022-08-18T04:33:03.725Z,8.10
2022-08-18T04:33:24.310Z,7.50
2022-08-18T04:33:44.708Z,7.90
2022-08-18T04:34:05.287Z,8.00
2022-08-18T04:34:25.684Z,9.80
2022-08-18T04:34:46.286Z,8.80
2022-08-18T04:35:10.041Z,9.70
2022-08-18T04:35:27.277Z,8.40
2022-08-18T04:35:47.871Z,7.90
2022-08-18T04:36:08.461Z,7.50
2022-08-18T04:36:29.049Z,7.20
2022-08-18T04:36:49.435Z,7.70
2022-08-18T04:37:10.028Z,7.40
2022-08-18T04:37:30.597Z,6.70
2022-08-18T04:37:53.916Z,6.80
2022-08-18T04:38:14.588Z,7.00
2022-08-18T04:38:35.170Z,7.60
2022-08-18T04:38:56.297Z,9.40
2022-08-18T04:39:17.183Z,8.20
2022-08-18T04:39:37.886Z,8.50
2022-08-18T04:39:58.522Z,7.10
2022-08-18T04:40:24.364Z,6.60
2022-08-18T04:40:39.272Z,7.80
2022-08-18T04:40:59.852Z,9.10
2022-08-18T04:41:20.433Z,7.60
2022-08-18T04:41:41.022Z,6.90
2022-08-18T04:42:01.601Z,7.50
2022-08-18T04:42:22.178Z,7.50
2022-08-18T04:42:43.369Z,7.20
2022-08-18T04:43:03.167Z,6.40
2022-08-18T04:43:23.755Z,8.00
2022-08-18T04:43:44.346Z,9.40
2022-08-18T04:44:04.919Z,10.80
2022-08-18T04:44:25.322Z,7.60
2022-08-18T04:44:45.897Z,7.40
2022-08-18T04:45:06.475Z,7.30
2022-08-18T04:45:27.061Z,8.10
2022-08-18T04:45:47.644Z,8.60
2022-08-18T04:46:08.225Z,6.30
2022-08-18T04:46:28.810Z,8.20
2022-08-18T04:46:49.419Z,6.50
2022-08-18T04:47:09.974Z,7.70
2022-08-18T04:47:30.558Z,7.80
2022-08-18T04:47:51.366Z,7.00
2022-08-18T04:48:12.911Z,7.20
2022-08-18T04:48:34.062Z,7.90
2022-08-18T04:48:54.657Z,8.20
2022-08-18T04:49:15.245Z,6.70
2022-08-18T04:49:35.821Z,6.80
2022-08-18T04:49:56.401Z,6.10
2022-08-18T04:50:16.988Z,6.30
2022-08-18T04:50:37.565Z,6.60
2022-08-18T04:50:58.143Z,7.40
2022-08-18T04:52:26.899Z,9.20
2022-08-18T04:52:34.864Z,8.20
2022-08-18T04:52:36.190Z,7.00
2022-08-18T04:52:36.262Z,7.80
2022-08-18T04:52:41.907Z,7.70
2022-08-18T04:53:02.611Z,7.00
2022-08-18T04:53:23.213Z,6.70
2022-08-18T04:53:44.078Z,6.90
2022-08-18T04:54:04.661Z,9.50
2022-08-18T04:54:25.243Z,8.30
2022-08-18T04:54:45.826Z,8.70
2022-08-18T04:55:06.220Z,8.20
2022-08-18T04:55:26.802Z,7.00
2022-08-18T04:55:47.384Z,8.20
2022-08-18T04:56:07.969Z,7.80
2022-08-18T04:56:28.555Z,6.70
2022-08-18T04:56:49.134Z,6.80
2022-08-18T04:57:09.720Z,8.30
2022-08-18T04:57:34.005Z,8.50
2022-08-18T04:57:50.494Z,8.10
2022-08-18T04:58:11.097Z,7.60
2022-08-18T04:58:31.682Z,7.90
2022-08-18T04:58:52.268Z,8.50
2022-08-18T04:59:12.866Z,7.30
2022-08-18T04:59:33.437Z,6.60
2022-08-18T04:59:54.023Z,6.30
2022-08-18T05:00:14.604Z,6.80
2022-08-18T05:00:35.184Z,6.20
2022-08-18T05:00:55.813Z,7.30
2022-08-18T05:01:16.454Z,6.80
2022-08-18T05:01:37.117Z,6.40
2022-08-18T05:01:57.673Z,7.20
2022-08-18T05:02:18.260Z,5.90
2022-08-18T05:02:41.688Z,7.60
2022-08-18T05:03:02.073Z,9.10
2022-08-18T05:03:22.684Z,7.60
2022-08-18T05:03:43.269Z,7.80
2022-08-18T05:04:03.674Z,8.00
2022-08-18T05:04:24.255Z,8.90
2022-08-18T05:04:44.837Z,6.40
2022-08-18T05:05:05.422Z,6.00
2022-08-18T05:05:26.002Z,8.00
2022-08-18T05:05:46.585Z,7.30
2022-08-18T05:06:08.145Z,6.10
2022-08-18T05:06:28.727Z,6.20
2022-08-18T05:06:49.121Z,6.90
2022-08-18T05:07:09.519Z,6.30
2022-08-18T05:07:30.122Z,7.90
2022-08-18T05:07:50.876Z,6.90
2022-08-18T05:08:11.553Z,7.40
2022-08-18T05:08:32.150Z,7.40
2022-08-18T05:08:52.734Z,8.30
2022-08-18T05:09:13.320Z,6.70
2022-08-18T05:09:41.309Z,6.00
2022-08-18T05:09:57.886Z,6.10
2022-08-18T05:10:18.464Z,6.40
2022-08-18T05:10:39.041Z,6.90
2022-08-18T05:11:03.871Z,6.90
2022-08-18T05:11:19.805Z,7.00
2022-08-18T05:11:40.391Z,5.50
2022-08-18T05:12:00.971Z,5.70
2022-08-18T05:12:25.834Z,7.50
2022-08-18T05:12:41.760Z,8.30
2022-08-18T05:13:02.159Z,8.50
2022-08-18T05:13:22.762Z,6.60
2022-08-18T05:13:43.153Z,6.70
2022-08-18T05:14:03.739Z,6.70
2022-08-18T05:14:24.326Z,6.50
2022-08-18T05:14:44.910Z,8.10
2022-08-18T05:15:05.488Z,8.50
2022-08-18T05:15:25.893Z,8.00
2022-08-18T05:16:09.053Z,7.60
2022-08-18T05:16:11.622Z,7.20
2022-08-18T05:16:27.787Z,6.60
2022-08-18T05:16:49.624Z,5.80
2022-08-18T05:17:10.288Z,6.60
2022-08-18T05:17:31.209Z,5.40
2022-08-18T05:17:52.102Z,6.80
2022-08-18T05:18:13.919Z,9.50
2022-08-18T05:18:32.683Z,7.90
2022-08-18T05:18:54.027Z,6.40
2022-08-18T05:19:14.427Z,6.50
2022-08-18T05:19:35.011Z,6.20
2022-08-18T05:19:55.593Z,6.70
2022-08-18T05:20:16.174Z,6.10
2022-08-18T05:20:38.705Z,7.50
2022-08-18T05:20:59.689Z,7.90
2022-08-18T05:21:22.223Z,7.30
2022-08-18T05:21:44.968Z,6.50
2022-08-18T05:22:05.525Z,5.60
2022-08-18T05:22:28.719Z,5.90
2022-08-18T05:22:46.315Z,6.50
2022-08-18T05:23:06.891Z,7.00
2022-08-18T05:23:27.475Z,6.50
2022-08-18T05:23:48.073Z,6.20
2022-08-18T05:24:08.664Z,6.60
2022-08-18T05:24:34.078Z,6.50
2022-08-18T05:24:49.643Z,6.60
2022-08-18T05:25:10.226Z,6.70
2022-08-18T05:25:30.810Z,6.30
2022-08-18T05:25:51.395Z,7.10
2022-08-18T05:26:13.678Z,6.30
2022-08-18T05:26:34.258Z,6.60
2022-08-18T05:26:54.843Z,6.80
2022-08-18T05:27:15.432Z,7.40
2022-08-18T05:27:35.826Z,7.50
2022-08-18T05:27:56.408Z,8.00
2022-08-18T05:28:16.988Z,6.50
2022-08-18T05:28:37.588Z,7.00
2022-08-18T05:29:04.238Z,7.30
2022-08-18T05:29:19.596Z,6.20
2022-08-18T05:29:45.576Z,6.90
2022-08-18T05:30:00.651Z,6.80
2022-08-18T05:30:21.234Z,7.00
2022-08-18T05:30:41.815Z,7.10
2022-08-18T05:31:02.399Z,7.10
2022-08-18T05:31:22.977Z,6.80
2022-08-18T05:31:43.378Z,6.80
2022-08-18T05:32:03.961Z,7.40
2022-08-18T05:32:30.836Z,8.00
2022-08-18T05:32:48.344Z,6.90
2022-08-18T05:33:05.344Z,7.50
2022-08-18T05:33:25.926Z,8.40
2022-08-18T05:33:46.527Z,7.40
2022-08-18T05:34:07.102Z,8.40
2022-08-18T05:34:27.691Z,8.40
2022-08-18T05:34:48.269Z,6.20
2022-08-18T05:35:08.662Z,7.20
2022-08-18T05:35:29.059Z,8.20
2022-08-18T05:35:49.640Z,8.70
2022-08-18T05:36:10.224Z,7.60
2022-08-18T05:36:30.814Z,7.30
2022-08-18T05:36:51.390Z,9.80
2022-08-18T05:37:11.974Z,8.80
2022-08-18T05:37:35.746Z,7.50
2022-08-18T05:37:56.480Z,11.20
2022-08-18T05:38:17.065Z,8.80
2022-08-18T05:38:37.661Z,8.20
2022-08-18T05:38:58.241Z,7.30
2022-08-18T05:39:18.825Z,5.90
2022-08-18T05:39:39.466Z,6.60
2022-08-18T05:40:00.238Z,6.30
2022-08-18T05:40:20.974Z,7.30
2022-08-18T05:40:41.564Z,6.30
2022-08-18T05:41:02.143Z,8.50
2022-08-18T05:41:22.730Z,8.00
2022-08-18T05:41:43.311Z,8.40
2022-08-18T05:42:03.897Z,6.80
2022-08-18T05:42:24.300Z,6.90
2022-08-18T05:42:45.712Z,7.00
2022-08-18T05:43:06.292Z,7.10
2022-08-18T05:43:26.884Z,7.70
2022-08-18T05:43:51.870Z,8.50
2022-08-18T05:44:07.887Z,8.10
2022-08-18T05:44:28.468Z,8.00
2022-08-18T05:44:49.052Z,8.10
2022-08-18T05:45:09.636Z,8.10
2022-08-18T05:45:30.228Z,6.00
2022-08-18T05:45:50.821Z,6.20
2022-08-18T05:46:11.402Z,7.20
2022-08-18T05:46:31.984Z,7.70
2022-08-18T05:46:52.566Z,7.10
2022-08-18T05:47:13.154Z,8.40
2022-08-18T05:47:33.736Z,7.40
2022-08-18T05:47:54.321Z,6.90
2022-08-18T05:48:14.907Z,6.60
2022-08-18T05:48:39.788Z,7.30
2022-08-18T05:48:55.909Z,8.30
2022-08-18T05:49:16.496Z,6.60
2022-08-18T05:49:37.079Z,8.20
2022-08-18T05:49:57.663Z,7.60
2022-08-18T05:50:18.253Z,8.90
2022-08-18T05:50:38.825Z,10.20
2022-08-18T05:50:59.406Z,9.90
2022-08-18T05:51:19.987Z,7.20
2022-08-18T05:51:40.569Z,9.50
2022-08-18T05:52:01.149Z,12.00
2022-08-18T05:52:21.734Z,15.10
2022-08-18T05:52:42.316Z,13.10
2022-08-18T05:53:02.899Z,8.90
2022-08-18T05:53:26.071Z,13.10
2022-08-18T05:53:46.474Z,8.80
2022-08-18T05:54:07.066Z,10.00
2022-08-18T05:54:27.647Z,9.70
2022-08-18T05:54:48.233Z,11.80
2022-08-18T05:55:08.813Z,8.70
2022-08-18T05:55:29.210Z,10.60
2022-08-18T05:55:49.604Z,9.50
2022-08-18T05:56:10.203Z,7.80
2022-08-18T05:56:30.788Z,8.50
2022-08-18T05:56:51.365Z,8.50
2022-08-18T05:57:11.946Z,9.40
2022-08-18T05:57:32.529Z,6.70
2022-08-18T05:57:53.426Z,9.80
2022-08-18T05:58:14.122Z,10.60
2022-08-18T05:58:34.704Z,8.80
2022-08-18T05:58:55.314Z,8.70
2022-08-18T05:59:15.899Z,8.60
2022-08-18T05:59:36.484Z,8.80
2022-08-18T05:59:57.066Z,9.20
2022-08-18T06:00:17.651Z,10.40
2022-08-18T06:00:38.074Z,12.40
2022-08-18T06:00:59.692Z,8.60
2022-08-18T06:01:20.840Z,8.20
2022-08-18T06:01:41.407Z,8.50
2022-08-18T06:02:02.002Z,10.00
2022-08-18T06:02:22.581Z,8.70
2022-08-18T06:02:43.232Z,9.10
2022-08-18T06:03:03.607Z,10.40
2022-08-18T06:03:24.223Z,10.10
2022-08-18T06:03:48.341Z,9.50
2022-08-18T06:04:08.948Z,10.10
2022-08-18T06:04:29.339Z,10.00
2022-08-18T06:04:49.740Z,7.80
2022-08-18T06:05:10.317Z,7.70
2022-08-18T06:05:30.743Z,8.70
2022-08-18T06:05:51.321Z,9.40
2022-08-18T06:06:14.271Z,9.40
2022-08-18T06:06:34.959Z,8.40
2022-08-18T06:06:55.544Z,8.70
2022-08-18T06:07:16.133Z,7.90
2022-08-18T06:07:36.718Z,9.90
2022-08-18T06:07:57.304Z,8.40
2022-08-18T06:08:17.888Z,8.60
2022-08-18T06:08:38.470Z,8.60
2022-08-18T06:08:59.056Z,7.30
2022-08-18T06:09:19.650Z,8.10
2022-08-18T06:09:40.230Z,7.90
2022-08-18T06:10:00.816Z,8.50
2022-08-18T06:10:21.395Z,7.70
2022-08-18T06:10:41.976Z,6.20
2022-08-18T06:11:02.560Z,6.60
2022-08-18T06:11:23.164Z,7.80
2022-08-18T06:11:43.731Z,7.00
2022-08-18T06:12:04.316Z,7.10
2022-08-18T06:12:24.895Z,9.80
2022-08-18T06:12:47.151Z,8.20
2022-08-18T06:13:08.016Z,6.90
2022-08-18T06:13:28.601Z,7.30
2022-08-18T06:13:49.187Z,6.40
2022-08-18T06:14:12.192Z,7.30
2022-08-18T06:14:32.778Z,7.10
2022-08-18T06:14:53.356Z,7.20
2022-08-18T06:15:13.944Z,7.30
2022-08-18T06:15:34.520Z,6.00
2022-08-18T06:15:54.927Z,6.90
2022-08-18T06:16:15.329Z,6.50
2022-08-18T06:16:35.922Z,6.30
2022-08-18T06:16:56.521Z,8.00
2022-08-18T06:17:17.114Z,7.90
2022-08-18T06:17:37.720Z,6.40
2022-08-18T06:17:59.199Z,8.10
2022-08-18T06:18:19.776Z,7.70
2022-08-18T06:18:40.360Z,6.00
2022-08-18T06:19:00.938Z,6.60
2022-08-18T06:19:21.536Z,7.80
2022-08-18T06:19:42.115Z,6.40
2022-08-18T06:20:02.700Z,6.60
2022-08-18T06:20:23.282Z,8.10
2022-08-18T06:20:43.867Z,8.40
2022-08-18T06:21:04.450Z,8.30
2022-08-18T06:21:25.036Z,7.20
2022-08-18T06:21:45.612Z,7.10
2022-08-18T06:22:06.198Z,8.30
2022-08-18T06:22:26.993Z,7.90
2022-08-18T06:22:52.584Z,7.60
2022-08-18T06:23:11.492Z,7.10
2022-08-18T06:23:32.067Z,9.20
2022-08-18T06:23:52.650Z,8.80
2022-08-18T06:24:13.257Z,6.50
2022-08-18T06:24:33.836Z,7.50
2022-08-18T06:24:54.423Z,6.60
2022-08-18T06:25:15.005Z,7.20
2022-08-18T06:25:38.390Z,8.40
2022-08-18T06:25:58.972Z,9.10
2022-08-18T06:26:19.549Z,7.10
2022-08-18T06:26:39.958Z,7.80
2022-08-18T06:27:00.531Z,9.30
2022-08-18T06:27:21.115Z,9.40
2022-08-18T06:27:41.698Z,7.80
2022-08-18T06:28:02.284Z,7.70
2022-08-18T06:28:22.928Z,8.20
2022-08-18T06:28:43.517Z,9.10
2022-08-18T06:29:04.096Z,9.40
2022-08-18T06:29:24.507Z,7.20
2022-08-18T06:29:45.092Z,6.80
2022-08-18T06:30:05.689Z,7.30
2022-08-18T06:30:26.293Z,7.20
2022-08-18T06:30:46.853Z,8.10
2022-08-18T06:31:07.440Z,7.50
2022-08-18T06:31:29.554Z,8.10
2022-08-18T06:31:50.197Z,9.40
2022-08-18T06:32:10.603Z,8.90
2022-08-18T06:32:31.181Z,8.20
2022-08-18T06:32:51.768Z,8.50
2022-08-18T06:33:12.353Z,8.00
2022-08-18T06:33:32.935Z,8.10
2022-08-18T06:33:53.522Z,10.60
2022-08-18T06:34:14.107Z,9.20
2022-08-18T06:34:34.699Z,9.00
2022-08-18T06:34:55.285Z,7.70
2022-08-18T06:35:15.869Z,8.40
2022-08-18T06:35:36.446Z,8.80